sensor_id;sensor_type;location;lat;lon;timestamp;P1;durP1;ratioP1;P2;durP2;ratioP2
27412;SDS011;14871;52.702;5.230;2023-02-18T00:00:24;15.68;;;2.70;;
27412;SDS011;14871;52.702;5.230;2023-02-18T00:02:50;14.90;;;3.00;;
27412;SDS011;14871;52.702;5.230;2023-02-18T00:05:16;16.10;;;2.97;;
27412;SDS011;14871;52.702;5.230;2023-02-18T00:07:42;16.88;;;3.00;;
27412;SDS011;14871;52.702;5.230;2023-02-18T00:10:10;16.83;;;3.42;;
27412;SDS011;14871;52.702;5.230;2023-02-18T00:12:37;13.43;;;3.25;;
27412;SDS011;14871;52.702;5.230;2023-02-18T00:15:03;12.23;;;3.33;;
27412;SDS011;14871;52.702;5.230;2023-02-18T00:17:29;13.07;;;3.70;;
27412;SDS011;14871;52.702;5.230;2023-02-18T00:19:55;8.48;;;2.65;;
27412;SDS011;14871;52.702;5.230;2023-02-18T00:22:21;13.10;;;2.60;;
27412;SDS011;14871;52.702;5.230;2023-02-18T00:24:47;13.05;;;3.30;;
27412;SDS011;14871;52.702;5.230;2023-02-18T00:27:13;10.45;;;2.50;;
27412;SDS011;14871;52.702;5.230;2023-02-18T00:29:38;11.25;;;2.60;;
27412;SDS011;14871;52.702;5.230;2023-02-18T00:32:04;11.40;;;2.80;;
27412;SDS011;14871;52.702;5.230;2023-02-18T00:34:29;16.88;;;2.92;;
27412;SDS011;14871;52.702;5.230;2023-02-18T00:36:55;10.73;;;2.90;;
27412;SDS011;14871;52.702;5.230;2023-02-18T00:39:21;13.65;;;3.35;;
27412;SDS011;14871;52.702;5.230;2023-02-18T00:41:46;12.55;;;2.92;;
27412;SDS011;14871;52.702;5.230;2023-02-18T00:44:12;12.13;;;2.92;;
27412;SDS011;14871;52.702;5.230;2023-02-18T00:46:38;13.98;;;3.15;;
27412;SDS011;14871;52.702;5.230;2023-02-18T00:49:04;18.95;;;3.13;;
27412;SDS011;14871;52.702;5.230;2023-02-18T00:51:31;13.85;;;3.65;;
27412;SDS011;14871;52.702;5.230;2023-02-18T00:53:57;12.13;;;3.70;;
27412;SDS011;14871;52.702;5.230;2023-02-18T00:56:23;15.35;;;3.83;;
27412;SDS011;14871;52.702;5.230;2023-02-18T00:58:49;12.48;;;3.03;;
27412;SDS011;14871;52.702;5.230;2023-02-18T01:01:14;17.80;;;3.63;;
27412;SDS011;14871;52.702;5.230;2023-02-18T01:03:40;14.55;;;3.25;;
27412;SDS011;14871;52.702;5.230;2023-02-18T01:06:07;14.68;;;3.95;;
27412;SDS011;14871;52.702;5.230;2023-02-18T01:08:34;10.90;;;3.05;;
27412;SDS011;14871;52.702;5.230;2023-02-18T01:11:01;13.15;;;3.42;;
27412;SDS011;14871;52.702;5.230;2023-02-18T01:13:28;15.75;;;4.45;;
27412;SDS011;14871;52.702;5.230;2023-02-18T01:15:53;14.25;;;4.07;;
27412;SDS011;14871;52.702;5.230;2023-02-18T01:18:20;20.05;;;4.95;;
27412;SDS011;14871;52.702;5.230;2023-02-18T01:20:46;19.73;;;5.35;;
27412;SDS011;14871;52.702;5.230;2023-02-18T01:23:12;17.30;;;4.95;;
27412;SDS011;14871;52.702;5.230;2023-02-18T01:25:39;21.27;;;5.75;;
27412;SDS011;14871;52.702;5.230;2023-02-18T01:28:06;18.10;;;5.57;;
27412;SDS011;14871;52.702;5.230;2023-02-18T01:30:33;18.55;;;5.78;;
27412;SDS011;14871;52.702;5.230;2023-02-18T01:32:59;23.10;;;6.55;;
27412;SDS011;14871;52.702;5.230;2023-02-18T01:35:25;23.73;;;6.93;;
27412;SDS011;14871;52.702;5.230;2023-02-18T01:37:51;23.17;;;7.10;;
27412;SDS011;14871;52.702;5.230;2023-02-18T01:40:18;20.08;;;7.38;;
27412;SDS011;14871;52.702;5.230;2023-02-18T01:42:46;26.70;;;8.50;;
27412;SDS011;14871;52.702;5.230;2023-02-18T01:50:32;25.27;;;9.10;;
27412;SDS011;14871;52.702;5.230;2023-02-18T01:52:59;29.27;;;9.35;;
27412;SDS011;14871;52.702;5.230;2023-02-18T01:55:26;30.25;;;10.80;;
27412;SDS011;14871;52.702;5.230;2023-02-18T01:57:52;28.85;;;10.68;;
27412;SDS011;14871;52.702;5.230;2023-02-18T02:00:18;30.45;;;10.82;;
27412;SDS011;14871;52.702;5.230;2023-02-18T02:02:47;32.92;;;10.13;;
27412;SDS011;14871;52.702;5.230;2023-02-18T02:05:15;33.97;;;10.73;;
27412;SDS011;14871;52.702;5.230;2023-02-18T02:07:42;33.70;;;10.75;;
27412;SDS011;14871;52.702;5.230;2023-02-18T02:10:10;29.88;;;11.57;;
27412;SDS011;14871;52.702;5.230;2023-02-18T02:12:47;31.80;;;11.90;;
27412;SDS011;14871;52.702;5.230;2023-02-18T02:15:40;35.63;;;13.05;;
27412;SDS011;14871;52.702;5.230;2023-02-18T02:26:59;42.95;;;14.07;;
27412;SDS011;14871;52.702;5.230;2023-02-18T02:35:07;42.25;;;16.65;;
27412;SDS011;14871;52.702;5.230;2023-02-18T02:45:53;37.50;;;16.50;;
27412;SDS011;14871;52.702;5.230;2023-02-18T02:48:45;57.25;;;21.27;;
27412;SDS011;14871;52.702;5.230;2023-02-18T02:53:54;53.88;;;22.48;;
27412;SDS011;14871;52.702;5.230;2023-02-18T02:56:32;52.13;;;22.38;;
27412;SDS011;14871;52.702;5.230;2023-02-18T02:59:03;53.72;;;24.13;;
27412;SDS011;14871;52.702;5.230;2023-02-18T03:12:52;69.65;;;28.15;;
27412;SDS011;14871;52.702;5.230;2023-02-18T03:15:21;61.97;;;26.50;;
27412;SDS011;14871;52.702;5.230;2023-02-18T03:18:05;59.05;;;28.00;;
27412;SDS011;14871;52.702;5.230;2023-02-18T03:20:36;78.18;;;32.10;;
27412;SDS011;14871;52.702;5.230;2023-02-18T03:23:08;79.65;;;34.97;;
27412;SDS011;14871;52.702;5.230;2023-02-18T03:25:37;84.90;;;32.72;;
27412;SDS011;14871;52.702;5.230;2023-02-18T03:28:05;79.32;;;34.40;;
27412;SDS011;14871;52.702;5.230;2023-02-18T03:30:45;83.32;;;36.35;;
27412;SDS011;14871;52.702;5.230;2023-02-18T03:33:15;87.22;;;36.17;;
27412;SDS011;14871;52.702;5.230;2023-02-18T03:35:44;90.63;;;36.75;;
27412;SDS011;14871;52.702;5.230;2023-02-18T03:40:40;101.75;;;39.17;;
27412;SDS011;14871;52.702;5.230;2023-02-18T03:43:06;98.03;;;41.47;;
27412;SDS011;14871;52.702;5.230;2023-02-18T03:45:32;113.15;;;45.55;;
27412;SDS011;14871;52.702;5.230;2023-02-18T03:47:57;98.97;;;42.17;;
27412;SDS011;14871;52.702;5.230;2023-02-18T03:50:23;113.32;;;46.13;;
27412;SDS011;14871;52.702;5.230;2023-02-18T03:52:49;93.90;;;40.40;;
27412;SDS011;14871;52.702;5.230;2023-02-18T03:55:15;116.40;;;45.42;;
27412;SDS011;14871;52.702;5.230;2023-02-18T03:57:40;121.60;;;48.60;;
27412;SDS011;14871;52.702;5.230;2023-02-18T04:00:07;121.10;;;49.05;;
27412;SDS011;14871;52.702;5.230;2023-02-18T04:02:33;106.43;;;45.45;;
27412;SDS011;14871;52.702;5.230;2023-02-18T04:04:59;117.82;;;49.83;;
27412;SDS011;14871;52.702;5.230;2023-02-18T04:07:24;115.70;;;50.22;;
27412;SDS011;14871;52.702;5.230;2023-02-18T04:09:50;97.00;;;45.30;;
27412;SDS011;14871;52.702;5.230;2023-02-18T04:12:15;86.97;;;43.50;;
27412;SDS011;14871;52.702;5.230;2023-02-18T04:14:41;90.15;;;43.50;;
27412;SDS011;14871;52.702;5.230;2023-02-18T04:17:07;75.18;;;38.95;;
27412;SDS011;14871;52.702;5.230;2023-02-18T04:19:32;72.90;;;36.67;;
27412;SDS011;14871;52.702;5.230;2023-02-18T04:21:58;59.70;;;28.08;;
27412;SDS011;14871;52.702;5.230;2023-02-18T04:24:23;62.58;;;31.50;;
27412;SDS011;14871;52.702;5.230;2023-02-18T04:26:49;53.35;;;28.50;;
27412;SDS011;14871;52.702;5.230;2023-02-18T04:29:15;52.20;;;25.60;;
27412;SDS011;14871;52.702;5.230;2023-02-18T04:31:40;49.88;;;26.42;;
27412;SDS011;14871;52.702;5.230;2023-02-18T04:34:06;43.78;;;22.70;;
27412;SDS011;14871;52.702;5.230;2023-02-18T04:36:32;40.72;;;21.27;;
27412;SDS011;14871;52.702;5.230;2023-02-18T04:38:58;36.28;;;21.15;;
27412;SDS011;14871;52.702;5.230;2023-02-18T04:41:23;36.55;;;21.13;;
27412;SDS011;14871;52.702;5.230;2023-02-18T04:43:49;31.92;;;18.42;;
27412;SDS011;14871;52.702;5.230;2023-02-18T04:46:15;42.10;;;22.08;;
27412;SDS011;14871;52.702;5.230;2023-02-18T04:48:40;40.22;;;24.27;;
27412;SDS011;14871;52.702;5.230;2023-02-18T04:51:06;45.13;;;29.85;;
27412;SDS011;14871;52.702;5.230;2023-02-18T04:53:32;41.35;;;27.58;;
27412;SDS011;14871;52.702;5.230;2023-02-18T04:55:57;49.88;;;33.70;;
27412;SDS011;14871;52.702;5.230;2023-02-18T04:58:23;38.70;;;27.02;;
27412;SDS011;14871;52.702;5.230;2023-02-18T05:00:49;41.45;;;30.42;;
27412;SDS011;14871;52.702;5.230;2023-02-18T05:03:15;40.55;;;28.50;;
27412;SDS011;14871;52.702;5.230;2023-02-18T05:05:40;45.38;;;31.50;;
27412;SDS011;14871;52.702;5.230;2023-02-18T05:08:07;39.00;;;27.30;;
27412;SDS011;14871;52.702;5.230;2023-02-18T05:10:33;44.22;;;31.13;;
27412;SDS011;14871;52.702;5.230;2023-02-18T05:12:58;33.30;;;24.58;;
27412;SDS011;14871;52.702;5.230;2023-02-18T05:15:24;41.58;;;28.60;;
27412;SDS011;14871;52.702;5.230;2023-02-18T05:17:50;37.83;;;25.52;;
27412;SDS011;14871;52.702;5.230;2023-02-18T05:20:16;37.22;;;24.92;;
27412;SDS011;14871;52.702;5.230;2023-02-18T05:22:42;35.35;;;20.88;;
27412;SDS011;14871;52.702;5.230;2023-02-18T05:25:07;43.20;;;22.45;;
27412;SDS011;14871;52.702;5.230;2023-02-18T05:27:33;35.20;;;17.88;;
27412;SDS011;14871;52.702;5.230;2023-02-18T05:29:59;36.58;;;17.65;;
27412;SDS011;14871;52.702;5.230;2023-02-18T05:32:24;43.65;;;22.73;;
27412;SDS011;14871;52.702;5.230;2023-02-18T05:34:50;45.20;;;22.63;;
27412;SDS011;14871;52.702;5.230;2023-02-18T05:37:15;51.88;;;24.73;;
27412;SDS011;14871;52.702;5.230;2023-02-18T05:39:42;42.70;;;22.98;;
27412;SDS011;14871;52.702;5.230;2023-02-18T05:42:08;46.47;;;22.15;;
27412;SDS011;14871;52.702;5.230;2023-02-18T05:44:34;46.53;;;22.65;;
27412;SDS011;14871;52.702;5.230;2023-02-18T05:47:01;50.72;;;21.42;;
27412;SDS011;14871;52.702;5.230;2023-02-18T05:49:29;49.58;;;22.55;;
27412;SDS011;14871;52.702;5.230;2023-02-18T05:51:56;45.47;;;21.77;;
27412;SDS011;14871;52.702;5.230;2023-02-18T05:54:22;25.50;;;15.77;;
27412;SDS011;14871;52.702;5.230;2023-02-18T05:56:47;41.55;;;19.85;;
27412;SDS011;14871;52.702;5.230;2023-02-18T05:59:13;36.63;;;18.55;;
27412;SDS011;14871;52.702;5.230;2023-02-18T06:01:39;39.30;;;18.35;;
27412;SDS011;14871;52.702;5.230;2023-02-18T06:04:05;41.80;;;17.45;;
27412;SDS011;14871;52.702;5.230;2023-02-18T06:06:30;28.00;;;14.40;;
27412;SDS011;14871;52.702;5.230;2023-02-18T06:08:56;31.67;;;15.23;;
27412;SDS011;14871;52.702;5.230;2023-02-18T06:11:22;33.60;;;16.58;;
27412;SDS011;14871;52.702;5.230;2023-02-18T06:13:47;31.35;;;14.98;;
27412;SDS011;14871;52.702;5.230;2023-02-18T06:16:13;35.90;;;17.70;;
27412;SDS011;14871;52.702;5.230;2023-02-18T06:18:39;32.80;;;15.02;;
27412;SDS011;14871;52.702;5.230;2023-02-18T06:21:04;30.08;;;15.88;;
27412;SDS011;14871;52.702;5.230;2023-02-18T06:23:30;29.13;;;13.90;;
27412;SDS011;14871;52.702;5.230;2023-02-18T06:25:56;33.75;;;14.70;;
27412;SDS011;14871;52.702;5.230;2023-02-18T06:28:21;27.08;;;13.15;;
27412;SDS011;14871;52.702;5.230;2023-02-18T06:30:47;26.90;;;11.73;;
27412;SDS011;14871;52.702;5.230;2023-02-18T06:33:13;23.75;;;10.80;;
27412;SDS011;14871;52.702;5.230;2023-02-18T06:35:39;25.15;;;11.82;;
27412;SDS011;14871;52.702;5.230;2023-02-18T06:38:05;25.60;;;10.38;;
27412;SDS011;14871;52.702;5.230;2023-02-18T06:40:31;22.60;;;9.43;;
27412;SDS011;14871;52.702;5.230;2023-02-18T06:42:56;18.20;;;9.05;;
27412;SDS011;14871;52.702;5.230;2023-02-18T06:45:22;20.83;;;7.82;;
27412;SDS011;14871;52.702;5.230;2023-02-18T06:47:47;20.55;;;7.38;;
27412;SDS011;14871;52.702;5.230;2023-02-18T06:50:13;24.25;;;8.13;;
27412;SDS011;14871;52.702;5.230;2023-02-18T06:52:39;25.85;;;8.70;;
27412;SDS011;14871;52.702;5.230;2023-02-18T06:55:05;18.40;;;7.35;;
27412;SDS011;14871;52.702;5.230;2023-02-18T06:57:33;21.75;;;8.63;;
27412;SDS011;14871;52.702;5.230;2023-02-18T06:59:59;15.25;;;6.47;;
27412;SDS011;14871;52.702;5.230;2023-02-18T07:02:25;25.23;;;9.45;;
27412;SDS011;14871;52.702;5.230;2023-02-18T07:04:51;22.25;;;8.02;;
27412;SDS011;14871;52.702;5.230;2023-02-18T07:07:17;18.00;;;6.43;;
27412;SDS011;14871;52.702;5.230;2023-02-18T07:09:43;17.77;;;8.27;;
27412;SDS011;14871;52.702;5.230;2023-02-18T07:12:08;19.80;;;9.05;;
27412;SDS011;14871;52.702;5.230;2023-02-18T07:14:34;25.77;;;10.05;;
27412;SDS011;14871;52.702;5.230;2023-02-18T07:16:59;21.73;;;10.02;;
27412;SDS011;14871;52.702;5.230;2023-02-18T07:19:25;23.45;;;11.40;;
27412;SDS011;14871;52.702;5.230;2023-02-18T07:21:51;23.48;;;9.00;;
27412;SDS011;14871;52.702;5.230;2023-02-18T07:24:18;21.15;;;9.90;;
27412;SDS011;14871;52.702;5.230;2023-02-18T07:26:43;24.27;;;10.98;;
27412;SDS011;14871;52.702;5.230;2023-02-18T07:29:09;20.95;;;8.25;;
27412;SDS011;14871;52.702;5.230;2023-02-18T07:31:35;21.40;;;9.98;;
27412;SDS011;14871;52.702;5.230;2023-02-18T07:34:02;26.75;;;11.60;;
27412;SDS011;14871;52.702;5.230;2023-02-18T07:36:28;26.80;;;8.93;;
27412;SDS011;14871;52.702;5.230;2023-02-18T07:38:53;23.42;;;9.25;;
27412;SDS011;14871;52.702;5.230;2023-02-18T07:41:20;25.15;;;10.25;;
27412;SDS011;14871;52.702;5.230;2023-02-18T07:43:46;19.17;;;9.50;;
27412;SDS011;14871;52.702;5.230;2023-02-18T07:46:13;18.20;;;7.82;;
27412;SDS011;14871;52.702;5.230;2023-02-18T07:48:39;18.33;;;8.13;;
27412;SDS011;14871;52.702;5.230;2023-02-18T07:51:05;24.65;;;8.75;;
27412;SDS011;14871;52.702;5.230;2023-02-18T07:53:32;18.60;;;7.78;;
27412;SDS011;14871;52.702;5.230;2023-02-18T07:55:59;21.15;;;6.95;;
27412;SDS011;14871;52.702;5.230;2023-02-18T07:58:29;14.00;;;5.50;;
27412;SDS011;14871;52.702;5.230;2023-02-18T08:00:56;19.23;;;6.90;;
27412;SDS011;14871;52.702;5.230;2023-02-18T08:03:23;19.58;;;6.15;;
27412;SDS011;14871;52.702;5.230;2023-02-18T08:05:54;17.27;;;5.60;;
27412;SDS011;14871;52.702;5.230;2023-02-18T08:08:21;21.58;;;6.95;;
27412;SDS011;14871;52.702;5.230;2023-02-18T08:10:49;18.65;;;6.68;;
27412;SDS011;14871;52.702;5.230;2023-02-18T08:13:16;16.67;;;5.75;;
27412;SDS011;14871;52.702;5.230;2023-02-18T08:15:41;19.83;;;6.95;;
27412;SDS011;14871;52.702;5.230;2023-02-18T08:18:08;21.25;;;7.38;;
27412;SDS011;14871;52.702;5.230;2023-02-18T08:20:40;16.10;;;5.60;;
27412;SDS011;14871;52.702;5.230;2023-02-18T08:23:05;19.83;;;6.50;;
27412;SDS011;14871;52.702;5.230;2023-02-18T08:25:31;17.42;;;5.53;;
27412;SDS011;14871;52.702;5.230;2023-02-18T08:27:57;20.38;;;5.32;;
27412;SDS011;14871;52.702;5.230;2023-02-18T08:30:24;15.27;;;4.10;;
27412;SDS011;14871;52.702;5.230;2023-02-18T08:32:50;20.60;;;4.63;;
27412;SDS011;14871;52.702;5.230;2023-02-18T08:35:15;21.02;;;5.13;;
27412;SDS011;14871;52.702;5.230;2023-02-18T08:37:41;16.15;;;3.92;;
27412;SDS011;14871;52.702;5.230;2023-02-18T08:40:07;12.60;;;3.13;;
27412;SDS011;14871;52.702;5.230;2023-02-18T08:42:34;22.23;;;4.10;;
27412;SDS011;14871;52.702;5.230;2023-02-18T08:44:59;15.38;;;3.58;;
27412;SDS011;14871;52.702;5.230;2023-02-18T08:47:25;22.38;;;4.13;;
27412;SDS011;14871;52.702;5.230;2023-02-18T08:49:53;12.75;;;3.13;;
27412;SDS011;14871;52.702;5.230;2023-02-18T08:52:19;23.20;;;4.60;;
27412;SDS011;14871;52.702;5.230;2023-02-18T08:54:45;12.25;;;3.28;;
27412;SDS011;14871;52.702;5.230;2023-02-18T08:57:10;12.63;;;3.10;;
27412;SDS011;14871;52.702;5.230;2023-02-18T08:59:36;18.58;;;3.47;;
27412;SDS011;14871;52.702;5.230;2023-02-18T09:02:02;19.55;;;3.42;;
27412;SDS011;14871;52.702;5.230;2023-02-18T09:04:28;19.17;;;3.60;;
27412;SDS011;14871;52.702;5.230;2023-02-18T09:06:54;15.52;;;3.30;;
27412;SDS011;14871;52.702;5.230;2023-02-18T09:09:19;10.70;;;2.97;;
27412;SDS011;14871;52.702;5.230;2023-02-18T09:11:45;14.93;;;3.05;;
27412;SDS011;14871;52.702;5.230;2023-02-18T09:14:12;18.63;;;4.03;;
27412;SDS011;14871;52.702;5.230;2023-02-18T09:16:38;10.65;;;2.45;;
27412;SDS011;14871;52.702;5.230;2023-02-18T09:19:05;20.02;;;3.38;;
27412;SDS011;14871;52.702;5.230;2023-02-18T09:21:31;22.00;;;3.10;;
27412;SDS011;14871;52.702;5.230;2023-02-18T09:23:57;17.65;;;3.00;;
27412;SDS011;14871;52.702;5.230;2023-02-18T09:26:22;22.70;;;2.95;;
27412;SDS011;14871;52.702;5.230;2023-02-18T09:28:50;20.58;;;4.25;;
27412;SDS011;14871;52.702;5.230;2023-02-18T09:31:18;17.77;;;3.42;;
27412;SDS011;14871;52.702;5.230;2023-02-18T09:33:47;18.48;;;3.20;;
27412;SDS011;14871;52.702;5.230;2023-02-18T09:36:20;19.13;;;4.13;;
27412;SDS011;14871;52.702;5.230;2023-02-18T09:38:45;17.48;;;3.22;;
27412;SDS011;14871;52.702;5.230;2023-02-18T09:41:19;18.60;;;3.30;;
27412;SDS011;14871;52.702;5.230;2023-02-18T09:43:53;13.68;;;3.42;;
27412;SDS011;14871;52.702;5.230;2023-02-18T09:46:23;19.20;;;3.63;;
27412;SDS011;14871;52.702;5.230;2023-02-18T09:49:03;16.10;;;3.08;;
27412;SDS011;14871;52.702;5.230;2023-02-18T09:51:36;14.43;;;3.25;;
27412;SDS011;14871;52.702;5.230;2023-02-18T09:54:01;17.95;;;2.90;;
27412;SDS011;14871;52.702;5.230;2023-02-18T09:56:31;18.45;;;3.28;;
27412;SDS011;14871;52.702;5.230;2023-02-18T09:59:00;11.98;;;2.58;;
27412;SDS011;14871;52.702;5.230;2023-02-18T10:01:32;16.63;;;3.28;;
27412;SDS011;14871;52.702;5.230;2023-02-18T10:04:12;21.50;;;3.67;;
27412;SDS011;14871;52.702;5.230;2023-02-18T10:06:54;18.98;;;3.30;;
27412;SDS011;14871;52.702;5.230;2023-02-18T10:11:59;21.92;;;4.30;;
27412;SDS011;14871;52.702;5.230;2023-02-18T10:14:42;15.48;;;3.20;;
27412;SDS011;14871;52.702;5.230;2023-02-18T10:17:11;13.63;;;2.65;;
27412;SDS011;14871;52.702;5.230;2023-02-18T10:19:40;22.23;;;3.83;;
27412;SDS011;14871;52.702;5.230;2023-02-18T10:22:08;16.27;;;3.72;;
27412;SDS011;14871;52.702;5.230;2023-02-18T10:24:37;18.13;;;4.22;;
27412;SDS011;14871;52.702;5.230;2023-02-18T10:27:07;16.42;;;3.15;;
27412;SDS011;14871;52.702;5.230;2023-02-18T10:29:34;15.05;;;2.90;;
27412;SDS011;14871;52.702;5.230;2023-02-18T10:34:38;20.90;;;3.83;;
27412;SDS011;14871;52.702;5.230;2023-02-18T10:40:05;16.92;;;3.90;;
27412;SDS011;14871;52.702;5.230;2023-02-18T10:42:54;20.60;;;3.72;;
27412;SDS011;14871;52.702;5.230;2023-02-18T10:45:41;20.40;;;3.08;;
27412;SDS011;14871;52.702;5.230;2023-02-18T10:50:52;15.02;;;2.83;;
27412;SDS011;14871;52.702;5.230;2023-02-18T10:53:28;17.40;;;3.38;;
27412;SDS011;14871;52.702;5.230;2023-02-18T10:56:00;24.38;;;3.38;;
27412;SDS011;14871;52.702;5.230;2023-02-18T11:00:52;14.30;;;3.00;;
27412;SDS011;14871;52.702;5.230;2023-02-18T11:03:19;14.48;;;2.95;;
27412;SDS011;14871;52.702;5.230;2023-02-18T11:05:51;13.80;;;3.10;;
27412;SDS011;14871;52.702;5.230;2023-02-18T11:08:21;11.57;;;2.70;;
27412;SDS011;14871;52.702;5.230;2023-02-18T11:10:49;12.90;;;2.53;;
27412;SDS011;14871;52.702;5.230;2023-02-18T11:13:25;15.80;;;2.78;;
27412;SDS011;14871;52.702;5.230;2023-02-18T11:15:57;14.50;;;2.55;;
27412;SDS011;14871;52.702;5.230;2023-02-18T11:20:55;16.58;;;2.28;;
27412;SDS011;14871;52.702;5.230;2023-02-18T11:23:22;17.63;;;3.03;;
27412;SDS011;14871;52.702;5.230;2023-02-18T11:25:53;19.05;;;3.20;;
27412;SDS011;14871;52.702;5.230;2023-02-18T11:28:38;14.60;;;3.03;;
27412;SDS011;14871;52.702;5.230;2023-02-18T11:31:05;18.38;;;2.92;;
27412;SDS011;14871;52.702;5.230;2023-02-18T11:36:16;12.25;;;2.67;;
27412;SDS011;14871;52.702;5.230;2023-02-18T11:38:53;13.40;;;2.72;;
27412;SDS011;14871;52.702;5.230;2023-02-18T11:41:38;11.30;;;3.05;;
27412;SDS011;14871;52.702;5.230;2023-02-18T11:44:18;14.20;;;3.28;;
27412;SDS011;14871;52.702;5.230;2023-02-18T11:49:39;14.18;;;3.10;;
27412;SDS011;14871;52.702;5.230;2023-02-18T11:57:48;12.48;;;3.50;;
27412;SDS011;14871;52.702;5.230;2023-02-18T12:00:35;8.43;;;2.40;;
27412;SDS011;14871;52.702;5.230;2023-02-18T12:03:30;10.43;;;1.88;;
27412;SDS011;14871;52.702;5.230;2023-02-18T12:06:11;15.05;;;2.92;;
27412;SDS011;14871;52.702;5.230;2023-02-18T12:08:50;11.15;;;2.85;;
27412;SDS011;14871;52.702;5.230;2023-02-18T12:11:26;13.82;;;3.13;;
27412;SDS011;14871;52.702;5.230;2023-02-18T12:13:57;14.20;;;3.05;;
27412;SDS011;14871;52.702;5.230;2023-02-18T12:39:05;14.27;;;2.85;;
27412;SDS011;14871;52.702;5.230;2023-02-18T12:52:13;11.57;;;2.92;;
27412;SDS011;14871;52.702;5.230;2023-02-18T13:00:49;12.13;;;2.80;;
27412;SDS011;14871;52.702;5.230;2023-02-18T13:14:09;7.10;;;2.05;;
27412;SDS011;14871;52.702;5.230;2023-02-18T13:16:35;10.80;;;2.88;;
27412;SDS011;14871;52.702;5.230;2023-02-18T13:19:10;9.52;;;2.50;;
27412;SDS011;14871;52.702;5.230;2023-02-18T13:21:49;11.95;;;3.15;;
27412;SDS011;14871;52.702;5.230;2023-02-18T13:24:34;7.35;;;2.10;;
27412;SDS011;14871;52.702;5.230;2023-02-18T13:32:25;9.85;;;3.20;;
27412;SDS011;14871;52.702;5.230;2023-02-18T13:34:54;10.45;;;2.58;;
27412;SDS011;14871;52.702;5.230;2023-02-18T13:40:20;8.85;;;2.05;;
27412;SDS011;14871;52.702;5.230;2023-02-18T13:42:52;11.18;;;2.50;;
27412;SDS011;14871;52.702;5.230;2023-02-18T13:45:25;8.30;;;2.47;;
27412;SDS011;14871;52.702;5.230;2023-02-18T13:47:52;8.83;;;2.17;;
27412;SDS011;14871;52.702;5.230;2023-02-18T13:50:24;12.68;;;2.60;;
27412;SDS011;14871;52.702;5.230;2023-02-18T14:06:00;9.98;;;2.47;;
27412;SDS011;14871;52.702;5.230;2023-02-18T14:08:35;10.40;;;2.53;;
27412;SDS011;14871;52.702;5.230;2023-02-18T14:19:41;8.95;;;2.10;;
27412;SDS011;14871;52.702;5.230;2023-02-18T14:27:36;15.10;;;2.60;;
27412;SDS011;14871;52.702;5.230;2023-02-18T14:30:19;12.60;;;3.15;;
27412;SDS011;14871;52.702;5.230;2023-02-18T14:32:54;15.20;;;2.65;;
27412;SDS011;14871;52.702;5.230;2023-02-18T14:35:29;11.63;;;2.50;;
27412;SDS011;14871;52.702;5.230;2023-02-18T14:38:07;13.35;;;2.63;;
27412;SDS011;14871;52.702;5.230;2023-02-18T14:43:52;12.70;;;2.33;;
27412;SDS011;14871;52.702;5.230;2023-02-18T14:46:34;13.13;;;2.13;;
27412;SDS011;14871;52.702;5.230;2023-02-18T14:51:55;12.38;;;2.63;;
27412;SDS011;14871;52.702;5.230;2023-02-18T14:54:22;12.73;;;2.65;;
27412;SDS011;14871;52.702;5.230;2023-02-18T14:57:04;11.35;;;2.78;;
27412;SDS011;14871;52.702;5.230;2023-02-18T14:59:34;10.77;;;2.72;;
27412;SDS011;14871;52.702;5.230;2023-02-18T15:02:08;11.70;;;2.38;;
27412;SDS011;14871;52.702;5.230;2023-02-18T15:04:51;9.15;;;2.22;;
27412;SDS011;14871;52.702;5.230;2023-02-18T15:07:18;15.05;;;2.25;;
27412;SDS011;14871;52.702;5.230;2023-02-18T15:09:49;12.23;;;3.00;;
27412;SDS011;14871;52.702;5.230;2023-02-18T15:12:18;11.95;;;2.78;;
27412;SDS011;14871;52.702;5.230;2023-02-18T15:14:46;13.45;;;2.67;;
27412;SDS011;14871;52.702;5.230;2023-02-18T15:17:16;12.00;;;2.35;;
27412;SDS011;14871;52.702;5.230;2023-02-18T15:19:55;10.75;;;2.33;;
27412;SDS011;14871;52.702;5.230;2023-02-18T15:22:23;15.23;;;2.60;;
27412;SDS011;14871;52.702;5.230;2023-02-18T15:24:51;12.50;;;2.72;;
27412;SDS011;14871;52.702;5.230;2023-02-18T15:27:20;10.93;;;2.55;;
27412;SDS011;14871;52.702;5.230;2023-02-18T15:29:51;16.55;;;2.60;;
27412;SDS011;14871;52.702;5.230;2023-02-18T15:32:25;14.98;;;3.20;;
27412;SDS011;14871;52.702;5.230;2023-02-18T15:34:52;12.75;;;2.45;;
27412;SDS011;14871;52.702;5.230;2023-02-18T15:37:25;11.52;;;2.65;;
27412;SDS011;14871;52.702;5.230;2023-02-18T15:39:52;14.43;;;2.80;;
27412;SDS011;14871;52.702;5.230;2023-02-18T15:47:42;13.52;;;3.55;;
27412;SDS011;14871;52.702;5.230;2023-02-18T15:50:18;15.07;;;4.30;;
27412;SDS011;14871;52.702;5.230;2023-02-18T15:52:49;13.23;;;4.82;;
27412;SDS011;14871;52.702;5.230;2023-02-18T15:55:30;15.75;;;4.72;;
27412;SDS011;14871;52.702;5.230;2023-02-18T15:58:03;11.47;;;3.73;;
27412;SDS011;14871;52.702;5.230;2023-02-18T16:01:22;15.38;;;5.50;;
27412;SDS011;14871;52.702;5.230;2023-02-18T16:03:26;18.67;;;4.82;;
27412;SDS011;14871;52.702;5.230;2023-02-18T16:08:58;16.52;;;3.05;;
27412;SDS011;14871;52.702;5.230;2023-02-18T16:11:39;15.48;;;4.28;;
27412;SDS011;14871;52.702;5.230;2023-02-18T16:14:22;13.52;;;3.60;;
27412;SDS011;14871;52.702;5.230;2023-02-18T16:19:33;10.82;;;2.92;;
27412;SDS011;14871;52.702;5.230;2023-02-18T16:22:03;14.52;;;4.03;;
27412;SDS011;14871;52.702;5.230;2023-02-18T16:24:37;18.42;;;4.25;;
27412;SDS011;14871;52.702;5.230;2023-02-18T16:27:05;15.65;;;4.55;;
27412;SDS011;14871;52.702;5.230;2023-02-18T16:29:42;32.30;;;12.95;;
27412;SDS011;14871;52.702;5.230;2023-02-18T16:32:08;22.83;;;9.55;;
27412;SDS011;14871;52.702;5.230;2023-02-18T16:34:34;17.30;;;4.95;;
27412;SDS011;14871;52.702;5.230;2023-02-18T16:37:00;18.80;;;5.18;;
27412;SDS011;14871;52.702;5.230;2023-02-18T16:39:45;19.77;;;5.75;;
27412;SDS011;14871;52.702;5.230;2023-02-18T16:42:11;16.02;;;4.85;;
27412;SDS011;14871;52.702;5.230;2023-02-18T16:44:38;16.48;;;4.57;;
27412;SDS011;14871;52.702;5.230;2023-02-18T16:47:04;15.65;;;5.07;;
27412;SDS011;14871;52.702;5.230;2023-02-18T16:49:30;28.05;;;14.20;;
27412;SDS011;14871;52.702;5.230;2023-02-18T16:51:57;27.05;;;10.93;;
27412;SDS011;14871;52.702;5.230;2023-02-18T16:54:25;18.92;;;6.80;;
27412;SDS011;14871;52.702;5.230;2023-02-18T16:56:52;21.95;;;5.38;;
27412;SDS011;14871;52.702;5.230;2023-02-18T16:59:18;25.98;;;5.15;;
27412;SDS011;14871;52.702;5.230;2023-02-18T17:01:43;18.85;;;4.40;;
27412;SDS011;14871;52.702;5.230;2023-02-18T17:04:11;19.38;;;4.85;;
27412;SDS011;14871;52.702;5.230;2023-02-18T17:06:38;19.75;;;4.85;;
27412;SDS011;14871;52.702;5.230;2023-02-18T17:09:08;19.83;;;5.05;;
27412;SDS011;14871;52.702;5.230;2023-02-18T17:11:41;15.27;;;4.57;;
27412;SDS011;14871;52.702;5.230;2023-02-18T17:14:14;18.42;;;5.25;;
27412;SDS011;14871;52.702;5.230;2023-02-18T17:16:42;29.17;;;14.73;;
27412;SDS011;14871;52.702;5.230;2023-02-18T17:19:08;40.35;;;16.50;;
27412;SDS011;14871;52.702;5.230;2023-02-18T17:21:34;18.08;;;8.27;;
27412;SDS011;14871;52.702;5.230;2023-02-18T17:24:00;17.92;;;5.28;;
27412;SDS011;14871;52.702;5.230;2023-02-18T17:26:26;18.50;;;6.65;;
27412;SDS011;14871;52.702;5.230;2023-02-18T17:28:54;13.45;;;4.85;;
27412;SDS011;14871;52.702;5.230;2023-02-18T17:31:25;21.95;;;4.97;;
27412;SDS011;14871;52.702;5.230;2023-02-18T17:33:57;17.67;;;5.20;;